sensor_id;sensor_type;location;lat;lon;timestamp;temperature;humidity
23069;DHT22;11702;50.856;4.348;2022-09-29T00:02:23;8.20;99.90
23069;DHT22;11702;50.856;4.348;2022-09-29T00:04:48;8.10;99.90
23069;DHT22;11702;50.856;4.348;2022-09-29T00:07:14;8.10;99.90
23069;DHT22;11702;50.856;4.348;2022-09-29T00:09:39;8.10;99.90
23069;DHT22;11702;50.856;4.348;2022-09-29T00:12:05;8.10;99.90
23069;DHT22;11702;50.856;4.348;2022-09-29T00:14:31;8.00;99.90
23069;DHT22;11702;50.856;4.348;2022-09-29T00:16:56;7.90;99.90
23069;DHT22;11702;50.856;4.348;2022-09-29T00:19:22;7.90;99.90
23069;DHT22;11702;50.856;4.348;2022-09-29T00:21:47;7.80;99.90
23069;DHT22;11702;50.856;4.348;2022-09-29T00:24:13;7.90;99.90
23069;DHT22;11702;50.856;4.348;2022-09-29T00:26:38;7.80;99.90
23069;DHT22;11702;50.856;4.348;2022-09-29T00:29:04;7.80;99.90
23069;DHT22;11702;50.856;4.348;2022-09-29T00:31:31;7.80;99.90
23069;DHT22;11702;50.856;4.348;2022-09-29T00:33:58;7.80;99.90
23069;DHT22;11702;50.856;4.348;2022-09-29T00:36:24;7.80;99.90
23069;DHT22;11702;50.856;4.348;2022-09-29T00:38:55;7.80;99.90
23069;DHT22;11702;50.856;4.348;2022-09-29T00:41:23;7.80;99.90
23069;DHT22;11702;50.856;4.348;2022-09-29T00:49:48;7.70;99.90
23069;DHT22;11702;50.856;4.348;2022-09-29T00:51:57;7.60;99.90
23069;DHT22;11702;50.856;4.348;2022-09-29T00:54:24;7.70;99.90
23069;DHT22;11702;50.856;4.348;2022-09-29T00:56:55;7.60;99.90
23069;DHT22;11702;50.856;4.348;2022-09-29T00:59:28;7.60;99.90
23069;DHT22;11702;50.856;4.348;2022-09-29T01:01:57;7.60;99.90
23069;DHT22;11702;50.856;4.348;2022-09-29T01:04:24;7.50;99.90
23069;DHT22;11702;50.856;4.348;2022-09-29T01:06:56;7.40;99.90
23069;DHT22;11702;50.856;4.348;2022-09-29T01:09:31;7.40;99.90
23069;DHT22;11702;50.856;4.348;2022-09-29T01:12:00;7.40;99.90
23069;DHT22;11702;50.856;4.348;2022-09-29T01:14:27;7.40;99.90
23069;DHT22;11702;50.856;4.348;2022-09-29T01:16:53;7.30;99.90
23069;DHT22;11702;50.856;4.348;2022-09-29T01:22:13;7.40;99.90
23069;DHT22;11702;50.856;4.348;2022-09-29T01:25:08;7.40;99.90
23069;DHT22;11702;50.856;4.348;2022-09-29T01:31:01;7.40;99.90
23069;DHT22;11702;50.856;4.348;2022-09-29T01:33:56;7.30;99.90
23069;DHT22;11702;50.856;4.348;2022-09-29T01:41:47;7.20;99.90
23069;DHT22;11702;50.856;4.348;2022-09-29T01:44:28;7.20;99.90
23069;DHT22;11702;50.856;4.348;2022-09-29T01:47:04;7.20;99.90
23069;DHT22;11702;50.856;4.348;2022-09-29T01:49:37;7.20;99.90
23069;DHT22;11702;50.856;4.348;2022-09-29T01:52:13;7.20;99.90
23069;DHT22;11702;50.856;4.348;2022-09-29T01:54:47;7.20;99.90
23069;DHT22;11702;50.856;4.348;2022-09-29T01:57:30;7.20;99.90
23069;DHT22;11702;50.856;4.348;2022-09-29T02:00:09;7.20;99.90
23069;DHT22;11702;50.856;4.348;2022-09-29T02:02:48;7.10;99.90
23069;DHT22;11702;50.856;4.348;2022-09-29T02:05:21;7.10;99.90
23069;DHT22;11702;50.856;4.348;2022-09-29T02:07:49;7.10;99.90
23069;DHT22;11702;50.856;4.348;2022-09-29T02:10:36;7.10;99.90
23069;DHT22;11702;50.856;4.348;2022-09-29T02:13:51;7.00;99.90
23069;DHT22;11702;50.856;4.348;2022-09-29T02:16:23;7.10;99.90
23069;DHT22;11702;50.856;4.348;2022-09-29T02:18:54;7.00;99.90
23069;DHT22;11702;50.856;4.348;2022-09-29T02:21:22;7.10;99.90
23069;DHT22;11702;50.856;4.348;2022-09-29T02:23:48;7.00;99.90
23069;DHT22;11702;50.856;4.348;2022-09-29T02:26:14;7.10;99.90
23069;DHT22;11702;50.856;4.348;2022-09-29T02:28:41;7.10;99.90
23069;DHT22;11702;50.856;4.348;2022-09-29T02:31:08;7.00;99.90
23069;DHT22;11702;50.856;4.348;2022-09-29T02:33:34;7.10;99.90
23069;DHT22;11702;50.856;4.348;2022-09-29T02:36:16;7.10;99.90
23069;DHT22;11702;50.856;4.348;2022-09-29T02:41:33;7.20;99.90
23069;DHT22;11702;50.856;4.348;2022-09-29T02:44:10;7.10;99.90
23069;DHT22;11702;50.856;4.348;2022-09-29T02:46:57;7.00;99.90
23069;DHT22;11702;50.856;4.348;2022-09-29T03:00:39;7.00;99.90
23069;DHT22;11702;50.856;4.348;2022-09-29T03:03:05;7.00;99.90
23069;DHT22;11702;50.856;4.348;2022-09-29T03:05:31;7.10;99.90
23069;DHT22;11702;50.856;4.348;2022-09-29T03:07:56;7.10;99.90
23069;DHT22;11702;50.856;4.348;2022-09-29T03:10:22;7.10;99.90
23069;DHT22;11702;50.856;4.348;2022-09-29T03:12:47;7.10;99.90
23069;DHT22;11702;50.856;4.348;2022-09-29T03:15:13;7.10;99.90
23069;DHT22;11702;50.856;4.348;2022-09-29T03:17:40;7.10;99.90
23069;DHT22;11702;50.856;4.348;2022-09-29T03:20:06;7.10;99.90
23069;DHT22;11702;50.856;4.348;2022-09-29T03:22:35;7.10;99.90
23069;DHT22;11702;50.856;4.348;2022-09-29T03:25:00;7.20;99.90
23069;DHT22;11702;50.856;4.348;2022-09-29T03:27:26;7.30;99.90
23069;DHT22;11702;50.856;4.348;2022-09-29T03:29:52;7.40;99.90
23069;DHT22;11702;50.856;4.348;2022-09-29T03:32:17;7.50;99.90
23069;DHT22;11702;50.856;4.348;2022-09-29T03:34:43;7.50;99.90
23069;DHT22;11702;50.856;4.348;2022-09-29T03:37:08;7.70;99.90
23069;DHT22;11702;50.856;4.348;2022-09-29T03:39:34;7.70;99.90
23069;DHT22;11702;50.856;4.348;2022-09-29T03:42:01;7.70;99.90
23069;DHT22;11702;50.856;4.348;2022-09-29T03:44:26;7.70;99.90
23069;DHT22;11702;50.856;4.348;2022-09-29T03:46:52;7.70;99.90
23069;DHT22;11702;50.856;4.348;2022-09-29T03:49:18;7.60;99.90
23069;DHT22;11702;50.856;4.348;2022-09-29T03:51:43;7.60;99.90
23069;DHT22;11702;50.856;4.348;2022-09-29T03:54:10;7.70;99.90
23069;DHT22;11702;50.856;4.348;2022-09-29T03:56:36;7.70;99.90
23069;DHT22;11702;50.856;4.348;2022-09-29T03:59:03;7.80;99.90
23069;DHT22;11702;50.856;4.348;2022-09-29T04:01:33;7.80;99.90
23069;DHT22;11702;50.856;4.348;2022-09-29T04:03:58;7.80;99.90
23069;DHT22;11702;50.856;4.348;2022-09-29T04:06:24;7.80;99.90
23069;DHT22;11702;50.856;4.348;2022-09-29T04:08:49;7.70;99.90
23069;DHT22;11702;50.856;4.348;2022-09-29T04:11:15;7.60;99.90
23069;DHT22;11702;50.856;4.348;2022-09-29T04:13:41;7.60;99.90
23069;DHT22;11702;50.856;4.348;2022-09-29T04:16:06;7.60;99.90
23069;DHT22;11702;50.856;4.348;2022-09-29T04:18:32;7.50;99.90
23069;DHT22;11702;50.856;4.348;2022-09-29T04:20:59;7.30;99.90
23069;DHT22;11702;50.856;4.348;2022-09-29T04:23:28;7.20;99.90
23069;DHT22;11702;50.856;4.348;2022-09-29T04:25:55;7.20;99.90
23069;DHT22;11702;50.856;4.348;2022-09-29T04:28:21;7.20;99.90
23069;DHT22;11702;50.856;4.348;2022-09-29T04:30:47;7.20;99.90
23069;DHT22;11702;50.856;4.348;2022-09-29T04:33:12;7.20;99.90
23069;DHT22;11702;50.856;4.348;2022-09-29T04:35:38;7.10;99.90
23069;DHT22;11702;50.856;4.348;2022-09-29T04:38:04;7.20;99.90
23069;DHT22;11702;50.856;4.348;2022-09-29T04:40:29;7.30;99.90
23069;DHT22;11702;50.856;4.348;2022-09-29T04:42:55;7.30;99.90
23069;DHT22;11702;50.856;4.348;2022-09-29T04:45:20;7.30;99.90
23069;DHT22;11702;50.856;4.348;2022-09-29T04:47:46;7.30;99.90
23069;DHT22;11702;50.856;4.348;2022-09-29T04:50:11;7.40;99.90
23069;DHT22;11702;50.856;4.348;2022-09-29T04:52:37;7.50;99.90
23069;DHT22;11702;50.856;4.348;2022-09-29T04:55:05;7.50;99.90
23069;DHT22;11702;50.856;4.348;2022-09-29T04:57:38;7.50;99.90
23069;DHT22;11702;50.856;4.348;2022-09-29T05:00:05;7.50;99.90
23069;DHT22;11702;50.856;4.348;2022-09-29T05:02:32;7.60;99.90
23069;DHT22;11702;50.856;4.348;2022-09-29T05:04:58;7.60;99.90
23069;DHT22;11702;50.856;4.348;2022-09-29T05:07:23;7.60;99.90
23069;DHT22;11702;50.856;4.348;2022-09-29T05:09:49;7.50;99.90
23069;DHT22;11702;50.856;4.348;2022-09-29T05:12:14;7.50;99.90
23069;DHT22;11702;50.856;4.348;2022-09-29T05:14:40;7.40;99.90
23069;DHT22;11702;50.856;4.348;2022-09-29T05:17:06;7.40;99.90
23069;DHT22;11702;50.856;4.348;2022-09-29T05:19:31;7.40;99.90
23069;DHT22;11702;50.856;4.348;2022-09-29T05:21:57;7.40;99.90
23069;DHT22;11702;50.856;4.348;2022-09-29T05:24:24;7.30;99.90
23069;DHT22;11702;50.856;4.348;2022-09-29T05:26:49;7.20;99.90
23069;DHT22;11702;50.856;4.348;2022-09-29T05:29:15;7.20;99.90
23069;DHT22;11702;50.856;4.348;2022-09-29T05:31:41;7.20;99.90
23069;DHT22;11702;50.856;4.348;2022-09-29T05:34:07;7.10;99.90
23069;DHT22;11702;50.856;4.348;2022-09-29T05:36:32;7.20;99.90
23069;DHT22;11702;50.856;4.348;2022-09-29T05:38:58;7.10;99.90
23069;DHT22;11702;50.856;4.348;2022-09-29T05:41:23;7.20;99.90
23069;DHT22;11702;50.856;4.348;2022-09-29T05:43:50;7.20;99.90
23069;DHT22;11702;50.856;4.348;2022-09-29T05:46:18;7.10;99.90
23069;DHT22;11702;50.856;4.348;2022-09-29T05:48:47;7.10;99.90
23069;DHT22;11702;50.856;4.348;2022-09-29T05:51:15;7.10;99.90
23069;DHT22;11702;50.856;4.348;2022-09-29T05:53:41;7.10;99.90
23069;DHT22;11702;50.856;4.348;2022-09-29T05:56:09;7.10;99.90
23069;DHT22;11702;50.856;4.348;2022-09-29T05:58:35;7.10;99.90
23069;DHT22;11702;50.856;4.348;2022-09-29T06:01:16;7.20;99.90
23069;DHT22;11702;50.856;4.348;2022-09-29T06:03:43;7.20;99.90
23069;DHT22;11702;50.856;4.348;2022-09-29T06:06:14;7.20;99.90
23069;DHT22;11702;50.856;4.348;2022-09-29T06:08:40;7.20;99.90
23069;DHT22;11702;50.856;4.348;2022-09-29T06:11:17;7.20;99.90
23069;DHT22;11702;50.856;4.348;2022-09-29T06:13:45;7.30;99.90
23069;DHT22;11702;50.856;4.348;2022-09-29T06:16:12;7.30;99.90
23069;DHT22;11702;50.856;4.348;2022-09-29T06:18:38;7.30;99.90
23069;DHT22;11702;50.856;4.348;2022-09-29T06:21:18;7.40;99.90
23069;DHT22;11702;50.856;4.348;2022-09-29T06:23:45;7.40;99.90
23069;DHT22;11702;50.856;4.348;2022-09-29T06:26:13;7.60;99.90
23069;DHT22;11702;50.856;4.348;2022-09-29T06:28:39;7.60;99.90
23069;DHT22;11702;50.856;4.348;2022-09-29T06:31:07;7.80;99.90
23069;DHT22;11702;50.856;4.348;2022-09-29T06:33:35;7.80;99.90
23069;DHT22;11702;50.856;4.348;2022-09-29T06:36:05;7.80;99.90
23069;DHT22;11702;50.856;4.348;2022-09-29T06:38:50;8.00;99.90
23069;DHT22;11702;50.856;4.348;2022-09-29T06:41:15;8.20;99.90
23069;DHT22;11702;50.856;4.348;2022-09-29T06:43:41;8.30;99.90
23069;DHT22;11702;50.856;4.348;2022-09-29T06:46:06;8.50;99.90
23069;DHT22;11702;50.856;4.348;2022-09-29T06:48:32;8.70;99.90
23069;DHT22;11702;50.856;4.348;2022-09-29T06:50:58;8.90;99.90
23069;DHT22;11702;50.856;4.348;2022-09-29T06:53:25;8.90;99.90
23069;DHT22;11702;50.856;4.348;2022-09-29T06:55:54;9.10;99.90
23069;DHT22;11702;50.856;4.348;2022-09-29T06:58:25;9.30;99.90
23069;DHT22;11702;50.856;4.348;2022-09-29T07:00:50;9.40;99.90
23069;DHT22;11702;50.856;4.348;2022-09-29T07:03:16;9.50;99.90
23069;DHT22;11702;50.856;4.348;2022-09-29T07:05:42;9.70;99.90
23069;DHT22;11702;50.856;4.348;2022-09-29T07:08:08;9.80;99.90
23069;DHT22;11702;50.856;4.348;2022-09-29T07:10:34;9.70;99.90
23069;DHT22;11702;50.856;4.348;2022-09-29T07:13:00;9.70;99.90
23069;DHT22;11702;50.856;4.348;2022-09-29T07:15:25;9.80;99.90
23069;DHT22;11702;50.856;4.348;2022-09-29T07:17:58;9.90;99.90
23069;DHT22;11702;50.856;4.348;2022-09-29T07:20:25;9.90;99.90
23069;DHT22;11702;50.856;4.348;2022-09-29T07:22:51;10.00;99.90
23069;DHT22;11702;50.856;4.348;2022-09-29T07:25:17;9.90;99.90
23069;DHT22;11702;50.856;4.348;2022-09-29T07:27:42;9.70;99.90
23069;DHT22;11702;50.856;4.348;2022-09-29T07:30:09;9.70;99.90
23069;DHT22;11702;50.856;4.348;2022-09-29T07:32:35;9.70;99.90
23069;DHT22;11702;50.856;4.348;2022-09-29T07:35:00;9.70;99.90
23069;DHT22;11702;50.856;4.348;2022-09-29T07:37:26;9.60;99.90
23069;DHT22;11702;50.856;4.348;2022-09-29T07:39:52;9.70;99.90
23069;DHT22;11702;50.856;4.348;2022-09-29T07:42:19;9.70;99.90
23069;DHT22;11702;50.856;4.348;2022-09-29T07:44:46;9.80;99.90
23069;DHT22;11702;50.856;4.348;2022-09-29T07:47:11;10.00;99.90
23069;DHT22;11702;50.856;4.348;2022-09-29T07:49:38;10.00;99.90
23069;DHT22;11702;50.856;4.348;2022-09-29T07:52:04;10.20;99.90
23069;DHT22;11702;50.856;4.348;2022-09-29T07:54:29;10.30;99.90
23069;DHT22;11702;50.856;4.348;2022-09-29T07:56:55;10.40;99.90
23069;DHT22;11702;50.856;4.348;2022-09-29T07:59:21;10.30;99.90
23069;DHT22;11702;50.856;4.348;2022-09-29T08:01:47;10.20;99.90
23069;DHT22;11702;50.856;4.348;2022-09-29T08:04:13;10.20;99.90
23069;DHT22;11702;50.856;4.348;2022-09-29T08:06:39;10.30;99.90
23069;DHT22;11702;50.856;4.348;2022-09-29T08:09:06;10.30;99.90
23069;DHT22;11702;50.856;4.348;2022-09-29T08:11:36;10.30;99.90
23069;DHT22;11702;50.856;4.348;2022-09-29T08:14:02;10.20;99.90
23069;DHT22;11702;50.856;4.348;2022-09-29T08:16:28;10.40;99.90
23069;DHT22;11702;50.856;4.348;2022-09-29T08:18:54;10.60;99.90
23069;DHT22;11702;50.856;4.348;2022-09-29T08:21:19;10.80;99.90
23069;DHT22;11702;50.856;4.348;2022-09-29T08:23:45;11.00;99.90
23069;DHT22;11702;50.856;4.348;2022-09-29T08:26:13;11.00;99.90
23069;DHT22;11702;50.856;4.348;2022-09-29T08:28:39;11.20;99.90
23069;DHT22;11702;50.856;4.348;2022-09-29T08:31:07;11.30;99.90
23069;DHT22;11702;50.856;4.348;2022-09-29T08:33:34;11.40;99.90
23069;DHT22;11702;50.856;4.348;2022-09-29T08:36:00;11.50;99.90
23069;DHT22;11702;50.856;4.348;2022-09-29T08:38:28;11.60;99.90
23069;DHT22;11702;50.856;4.348;2022-09-29T08:40:55;11.50;99.90
23069;DHT22;11702;50.856;4.348;2022-09-29T08:43:30;11.50;99.90
23069;DHT22;11702;50.856;4.348;2022-09-29T08:46:04;11.60;99.90
23069;DHT22;11702;50.856;4.348;2022-09-29T08:48:36;11.80;99.90
23069;DHT22;11702;50.856;4.348;2022-09-29T08:51:05;12.00;99.90
23069;DHT22;11702;50.856;4.348;2022-09-29T08:53:34;12.20;99.90
23069;DHT22;11702;50.856;4.348;2022-09-29T08:56:08;12.30;99.90
23069;DHT22;11702;50.856;4.348;2022-09-29T08:58:38;12.40;99.90
23069;DHT22;11702;50.856;4.348;2022-09-29T09:20:26;12.80;99.90
23069;DHT22;11702;50.856;4.348;2022-09-29T09:25:32;13.00;99.90
23069;DHT22;11702;50.856;4.348;2022-09-29T09:33:31;13.10;99.90
23069;DHT22;11702;50.856;4.348;2022-09-29T09:36:04;13.30;99.90
23069;DHT22;11702;50.856;4.348;2022-09-29T09:38:54;13.40;99.90
23069;DHT22;11702;50.856;4.348;2022-09-29T09:41:24;13.50;99.90
23069;DHT22;11702;50.856;4.348;2022-09-29T09:44:15;13.70;99.90
23069;DHT22;11702;50.856;4.348;2022-09-29T09:46:48;13.90;99.90
23069;DHT22;11702;50.856;4.348;2022-09-29T09:49:27;14.00;99.90
23069;DHT22;11702;50.856;4.348;2022-09-29T09:54:28;14.00;99.90
23069;DHT22;11702;50.856;4.348;2022-09-29T10:02:28;14.10;99.90
23069;DHT22;11702;50.856;4.348;2022-09-29T10:04:54;14.40;99.90
23069;DHT22;11702;50.856;4.348;2022-09-29T10:07:24;14.40;99.90
23069;DHT22;11702;50.856;4.348;2022-09-29T10:09:50;14.50;99.90
23069;DHT22;11702;50.856;4.348;2022-09-29T10:12:23;14.40;99.90
23069;DHT22;11702;50.856;4.348;2022-09-29T10:14:56;14.30;99.90
23069;DHT22;11702;50.856;4.348;2022-09-29T10:17:26;14.50;99.90
23069;DHT22;11702;50.856;4.348;2022-09-29T10:19:57;14.50;99.90
23069;DHT22;11702;50.856;4.348;2022-09-29T10:22:25;14.60;99.90
23069;DHT22;11702;50.856;4.348;2022-09-29T10:24:52;14.60;99.90
23069;DHT22;11702;50.856;4.348;2022-09-29T10:27:22;14.60;99.90
23069;DHT22;11702;50.856;4.348;2022-09-29T10:29:50;14.60;99.90
23069;DHT22;11702;50.856;4.348;2022-09-29T10:32:32;14.70;99.90
23069;DHT22;11702;50.856;4.348;2022-09-29T10:35:14;14.80;99.90
23069;DHT22;11702;50.856;4.348;2022-09-29T10:37:43;15.10;99.90
23069;DHT22;11702;50.856;4.348;2022-09-29T10:40:15;15.20;99.90
23069;DHT22;11702;50.856;4.348;2022-09-29T10:42:49;15.40;99.90
23069;DHT22;11702;50.856;4.348;2022-09-29T10:45:21;15.50;99.90
23069;DHT22;11702;50.856;4.348;2022-09-29T10:50:59;15.70;99.90
23069;DHT22;11702;50.856;4.348;2022-09-29T10:53:38;15.70;99.90
23069;DHT22;11702;50.856;4.348;2022-09-29T10:56:17;15.90;99.90
23069;DHT22;11702;50.856;4.348;2022-09-29T10:58:54;16.00;99.90
23069;DHT22;11702;50.856;4.348;2022-09-29T11:01:21;16.10;99.90
23069;DHT22;11702;50.856;4.348;2022-09-29T11:06:14;16.20;99.90
23069;DHT22;11702;50.856;4.348;2022-09-29T11:09:04;16.20;99.90
23069;DHT22;11702;50.856;4.348;2022-09-29T11:11:51;16.30;99.90
23069;DHT22;11702;50.856;4.348;2022-09-29T11:17:01;16.70;99.90
23069;DHT22;11702;50.856;4.348;2022-09-29T11:19:30;17.00;99.90
23069;DHT22;11702;50.856;4.348;2022-09-29T11:27:32;16.90;99.90
23069;DHT22;11702;50.856;4.348;2022-09-29T11:30:15;16.80;99.90
23069;DHT22;11702;50.856;4.348;2022-09-29T11:35:44;16.90;99.90
23069;DHT22;11702;50.856;4.348;2022-09-29T11:43:32;16.70;99.90
23069;DHT22;11702;50.856;4.348;2022-09-29T12:00:13;16.90;99.90
23069;DHT22;11702;50.856;4.348;2022-09-29T12:16:58;17.00;99.90
23069;DHT22;11702;50.856;4.348;2022-09-29T12:19:27;16.90;99.90
23069;DHT22;11702;50.856;4.348;2022-09-29T12:21:58;17.10;99.90
23069;DHT22;11702;50.856;4.348;2022-09-29T12:24:44;17.20;99.90
23069;DHT22;11702;50.856;4.348;2022-09-29T12:29:45;17.60;99.90
23069;DHT22;11702;50.856;4.348;2022-09-29T12:32:22;17.80;99.90
23069;DHT22;11702;50.856;4.348;2022-09-29T12:34:54;17.60;99.90
23069;DHT22;11702;50.856;4.348;2022-09-29T12:40:36;17.80;99.90
23069;DHT22;11702;50.856;4.348;2022-09-29T12:46:29;17.90;99.90
23069;DHT22;11702;50.856;4.348;2022-09-29T12:51:48;18.20;99.90
23069;DHT22;11702;50.856;4.348;2022-09-29T13:02:52;19.00;99.90
23069;DHT22;11702;50.856;4.348;2022-09-29T13:08:47;19.00;99.90
23069;DHT22;11702;50.856;4.348;2022-09-29T13:16:47;18.30;99.90
23069;DHT22;11702;50.856;4.348;2022-09-29T13:22:18;17.80;99.90
23069;DHT22;11702;50.856;4.348;2022-09-29T13:27:28;17.30;99.90
23069;DHT22;11702;50.856;4.348;2022-09-29T13:30:11;17.40;99.90
23069;DHT22;11702;50.856;4.348;2022-09-29T13:35:16;17.60;99.90
23069;DHT22;11702;50.856;4.348;2022-09-29T13:38:04;17.50;99.90
23069;DHT22;11702;50.856;4.348;2022-09-29T13:40:31;17.60;99.90
23069;DHT22;11702;50.856;4.348;2022-09-29T13:43:02;17.70;99.90
23069;DHT22;11702;50.856;4.348;2022-09-29T13:50:56;17.60;99.90
23069;DHT22;11702;50.856;4.348;2022-09-29T13:55:55;17.70;99.90
23069;DHT22;11702;50.856;4.348;2022-09-29T13:58:35;18.10;99.90
23069;DHT22;11702;50.856;4.348;2022-09-29T14:01:05;18.20;99.90
23069;DHT22;11702;50.856;4.348;2022-09-29T14:03:36;18.20;99.90
23069;DHT22;11702;50.856;4.348;2022-09-29T14:06:12;18.00;99.90
23069;DHT22;11702;50.856;4.348;2022-09-29T14:08:49;17.90;99.90
23069;DHT22;11702;50.856;4.348;2022-09-29T14:14:07;17.90;99.90
23069;DHT22;11702;50.856;4.348;2022-09-29T14:21:51;17.30;99.90
23069;DHT22;11702;50.856;4.348;2022-09-29T14:24:44;17.30;99.90
23069;DHT22;11702;50.856;4.348;2022-09-29T14:27:28;16.80;99.90
23069;DHT22;11702;50.856;4.348;2022-09-29T14:32:40;16.60;99.90
23069;DHT22;11702;50.856;4.348;2022-09-29T14:35:35;16.70;99.90
23069;DHT22;11702;50.856;4.348;2022-09-29T14:55:14;16.70;99.90
23069;DHT22;11702;50.856;4.348;2022-09-29T14:58:18;16.70;99.90
23069;DHT22;11702;50.856;4.348;2022-09-29T15:03:21;16.80;99.90
23069;DHT22;11702;50.856;4.348;2022-09-29T15:06:12;16.80;99.90
23069;DHT22;11702;50.856;4.348;2022-09-29T15:08:39;16.90;99.90
23069;DHT22;11702;50.856;4.348;2022-09-29T15:11:25;17.00;99.90
23069;DHT22;11702;50.856;4.348;2022-09-29T15:13:53;16.70;99.90
23069;DHT22;11702;50.856;4.348;2022-09-29T15:24:47;15.40;99.90
23069;DHT22;11702;50.856;4.348;2022-09-29T15:27:15;15.40;99.90
23069;DHT22;11702;50.856;4.348;2022-09-29T15:29:46;15.40;99.90
23069;DHT22;11702;50.856;4.348;2022-09-29T15:32:25;15.40;99.90
23069;DHT22;11702;50.856;4.348;2022-09-29T15:34:53;15.30;99.90
23069;DHT22;11702;50.856;4.348;2022-09-29T15:37:24;15.20;99.90
23069;DHT22;11702;50.856;4.348;2022-09-29T15:39:51;15.30;99.90
23069;DHT22;11702;50.856;4.348;2022-09-29T15:42:19;15.30;99.90
23069;DHT22;11702;50.856;4.348;2022-09-29T15:45:15;15.10;99.90
23069;DHT22;11702;50.856;4.348;2022-09-29T15:47:41;15.10;99.90
23069;DHT22;11702;50.856;4.348;2022-09-29T15:50:24;15.00;99.90
23069;DHT22;11702;50.856;4.348;2022-09-29T15:52:50;15.10;99.90
23069;DHT22;11702;50.856;4.348;2022-09-29T15:55:24;15.10;99.90
23069;DHT22;11702;50.856;4.348;2022-09-29T15:57:50;15.10;99.90
23069;DHT22;11702;50.856;4.348;2022-09-29T16:05:28;14.80;99.90
23069;DHT22;11702;50.856;4.348;2022-09-29T16:08:05;14.80;99.90
23069;DHT22;11702;50.856;4.348;2022-09-29T16:10:58;14.70;99.90
23069;DHT22;11702;50.856;4.348;2022-09-29T16:13:37;14.80;99.90
23069;DHT22;11702;50.856;4.348;2022-09-29T16:16:08;14.70;99.90
23069;DHT22;11702;50.856;4.348;2022-09-29T16:18:45;14.70;99.90
23069;DHT22;11702;50.856;4.348;2022-09-29T16:21:20;14.60;99.90
23069;DHT22;11702;50.856;4.348;2022-09-29T16:26:19;14.60;99.90
23069;DHT22;11702;50.856;4.348;2022-09-29T16:29:01;14.70;99.90
23069;DHT22;11702;50.856;4.348;2022-09-29T16:31:29;14.60;99.90
23069;DHT22;11702;50.856;4.348;2022-09-29T16:33:57;14.60;99.90
23069;DHT22;11702;50.856;4.348;2022-09-29T16:36:30;14.70;99.90
23069;DHT22;11702;50.856;4.348;2022-09-29T16:39:03;14.70;99.90
23069;DHT22;11702;50.856;4.348;2022-09-29T16:41:36;14.70;99.90
23069;DHT22;11702;50.856;4.348;2022-09-29T16:46:52;14.70;99.90
23069;DHT22;11702;50.856;4.348;2022-09-29T16:49:28;14.80;99.90
23069;DHT22;11702;50.856;4.348;2022-09-29T16:51:58;14.60;99.90
23069;DHT22;11702;50.856;4.348;2022-09-29T16:54:31;14.50;99.90
23069;DHT22;11702;50.856;4.348;2022-09-29T16:57:19;14.50;99.90
23069;DHT22;11702;50.856;4.348;2022-09-29T16:59:54;14.40;99.90
23069;DHT22;11702;50.856;4.348;2022-09-29T17:02:20;14.20;99.90
23069;DHT22;11702;50.856;4.348;2022-09-29T17:04:47;14.10;99.90
23069;DHT22;11702;50.856;4.348;2022-09-29T17:07:15;13.90;99.90
23069;DHT22;11702;50.856;4.348;2022-09-29T17:09:46;13.90;99.90
23069;DHT22;11702;50.856;4.348;2022-09-29T17:12:14;13.80;99.90
23069;DHT22;11702;50.856;4.348;2022-09-29T17:14:40;13.90;99.90
23069;DHT22;11702;50.856;4.348;2022-09-29T17:17:09;13.90;99.90
23069;DHT22;11702;50.856;4.348;2022-09-29T17:19:38;13.90;99.90
23069;DHT22;11702;50.856;4.348;2022-09-29T17:22:33;13.80;99.90
23069;DHT22;11702;50.856;4.348;2022-09-29T17:24:59;13.90;99.90
23069;DHT22;11702;50.856;4.348;2022-09-29T17:27:25;13.90;99.90
23069;DHT22;11702;50.856;4.348;2022-09-29T17:30:12;14.00;99.90
23069;DHT22;11702;50.856;4.348;2022-09-29T17:32:42;13.90;99.90
23069;DHT22;11702;50.856;4.348;2022-09-29T17:35:08;13.90;99.90
23069;DHT22;11702;50.856;4.348;2022-09-29T17:37:37;13.90;99.90
23069;DHT22;11702;50.856;4.348;2022-09-29T17:40:23;13.90;99.90
23069;DHT22;11702;50.856;4.348;2022-09-29T17:42:49;14.00;99.90
23069;DHT22;11702;50.856;4.348;2022-09-29T17:45:19;13.90;99.90
23069;DHT22;11702;50.856;4.348;2022-09-29T17:47:46;13.70;99.90
23069;DHT22;11702;50.856;4.348;2022-09-29T17:50:37;13.60;99.90
23069;DHT22;11702;50.856;4.348;2022-09-29T17:53:05;13.50;99.90
23069;DHT22;11702;50.856;4.348;2022-09-29T17:55:32;13.50;99.90
23069;DHT22;11702;50.856;4.348;2022-09-29T17:57:58;13.50;99.90
23069;DHT22;11702;50.856;4.348;2022-09-29T18:00:32;13.50;99.90
23069;DHT22;11702;50.856;4.348;2022-09-29T18:02:58;13.30;99.90
23069;DHT22;11702;50.856;4.348;2022-09-29T18:05:25;13.30;99.90
23069;DHT22;11702;50.856;4.348;2022-09-29T18:07:53;13.10;99.90
23069;DHT22;11702;50.856;4.348;2022-09-29T18:13:18;13.00;99.90
23069;DHT22;11702;50.856;4.348;2022-09-29T18:15:44;13.00;99.90
23069;DHT22;11702;50.856;4.348;2022-09-29T18:18:12;13.10;99.90
23069;DHT22;11702;50.856;4.348;2022-09-29T18:20:40;13.10;99.90
23069;DHT22;11702;50.856;4.348;2022-09-29T18:23:06;13.10;99.90
23069;DHT22;11702;50.856;4.348;2022-09-29T18:25:33;13.10;99.90
23069;DHT22;11702;50.856;4.348;2022-09-29T18:27:59;13.20;99.90
23069;DHT22;11702;50.856;4.348;2022-09-29T18:30:34;13.20;99.90
23069;DHT22;11702;50.856;4.348;2022-09-29T18:33:04;13.20;99.90
23069;DHT22;11702;50.856;4.348;2022-09-29T18:35:32;13.30;99.90
23069;DHT22;11702;50.856;4.348;2022-09-29T18:37:59;13.30;99.90
23069;DHT22;11702;50.856;4.348;2022-09-29T18:40:26;13.30;99.90
23069;DHT22;11702;50.856;4.348;2022-09-29T18:42:52;13.20;99.90
23069;DHT22;11702;50.856;4.348;2022-09-29T18:45:22;13.30;99.90
23069;DHT22;11702;50.856;4.348;2022-09-29T18:47:49;13.40;99.90
23069;DHT22;11702;50.856;4.348;2022-09-29T18:50:21;13.30;99.90
23069;DHT22;11702;50.856;4.348;2022-09-29T18:52:47;13.20;99.90
23069;DHT22;11702;50.856;4.348;2022-09-29T18:55:15;13.30;99.90
23069;DHT22;11702;50.856;4.348;2022-09-29T18:57:44;13.20;99.90
23069;DHT22;11702;50.856;4.348;2022-09-29T19:00:14;13.20;99.90
23069;DHT22;11702;50.856;4.348;2022-09-29T19:02:41;13.30;99.90
23069;DHT22;11702;50.856;4.348;2022-09-29T19:05:13;13.20;99.90
23069;DHT22;11702;50.856;4.348;2022-09-29T19:07:48;13.10;99.90
23069;DHT22;11702;50.856;4.348;2022-09-29T19:10:15;13.00;99.90
23069;DHT22;11702;50.856;4.348;2022-09-29T19:12:42;12.90;99.90
23069;DHT22;11702;50.856;4.348;2022-09-29T19:15:16;12.80;99.90
23069;DHT22;11702;50.856;4.348;2022-09-29T19:17:42;12.70;99.90
23069;DHT22;11702;50.856;4.348;2022-09-29T19:20:09;12.70;99.90
23069;DHT22;11702;50.856;4.348;2022-09-29T19:22:36;12.60;99.90
23069;DHT22;11702;50.856;4.348;2022-09-29T19:25:15;12.40;99.90
23069;DHT22;11702;50.856;4.348;2022-09-29T19:27:42;12.40;99.90
23069;DHT22;11702;50.856;4.348;2022-09-29T19:30:10;12.40;99.90
23069;DHT22;11702;50.856;4.348;2022-09-29T19:32:36;12.30;99.90